Date,TemperatureHighF,TemperatureAvgF,TemperatureLowF,DewpointHighF,DewpointAvgF,DewpointLowF,HumidityHigh,HumidityAvg,HumidityLow,PressureMaxIn,PressureMinIn,WindSpeedMaxMPH,WindSpeedAvgMPH,GustSpeedMaxMPH,PrecipitationSumIn
2013-1-1,39.5,33.3,29.1,35.4,31.6,28.1,97,93,84,30.43,30.28,4,1,6,0.01
2013-1-2,41.8,32.9,29.0,34.8,30.8,28.3,98,93,70,30.28,30.17,7,1,7,0.01
2013-1-4,47.4,43.4,40.1,42.5,41.0,38.5,97,91,82,30.26,30.09,11,1,12,0.03
2013-1-5,43.6,41.5,39.6,41.5,37.7,34.6,97,87,72,30.12,30.04,12,2,13,0.06
2013-1-6,44.2,41.1,38.5,41.0,37.9,35.1,96,88,80,30.13,29.90,14,3,17,0.19
2013-1-7,49.5,46.3,42.2,48.1,43.6,39.6,96,90,76,30.10,29.78,22,5,22,0.33
2013-1-8,51.3,47.1,42.3,49.1,45.1,40.7,98,93,84,30.10,29.69,24,5,25,0.97
2013-1-9,49.5,40.9,35.0,48.4,38.1,33.1,96,90,76,29.88,29.63,18,4,18,0.68
2013-1-10,36.0,34.1,32.8,34.1,32.9,31.8,97,95,92,30.02,29.88,12,2,12,0.00
2013-1-11,38.5,33.6,28.8,32.9,26.4,22.0,98,76,52,30.25,30.19,11,2,13,0.00
2013-1-12,37.0,30.4,25.4,32.7,26.1,23.0,97,85,59,30.37,30.24,10,1,11,0.01
2013-1-13,36.3,30.0,25.0,28.9,25.4,22.5,91,83,65,30.43,30.36,7,1,8,0.00
2013-1-14,33.8,29.7,25.3,32.0,27.4,22.4,94,91,85,30.50,30.41,11,2,11,0.02
2013-1-15,42.2,35.9,30.3,35.5,32.5,28.6,95,88,69,30.64,30.50,15,2,15,0.00
2013-1-16,38.2,32.5,29.0,36.2,31.3,27.5,98,95,88,30.61,30.44,5,1,5,0.01
2013-1-17,35.6,32.8,29.5,35.1,32.3,28.5,98,98,96,30.45,30.23,6,1,7,0.00
2013-1-18,37.8,33.7,29.4,35.2,32.2,28.9,98,94,89,30.26,30.19,10,2,10,0.00
2013-1-19,37.6,36.1,33.8,34.8,34.0,32.4,96,92,88,30.31,30.25,9,2,9,0.00
2013-1-20,38.2,35.4,32.8,35.7,34.1,31.9,98,95,90,30.32,30.19,7,2,7,0.00
2013-1-21,35.9,33.2,30.0,35.0,32.4,29.2,98,97,95,30.21,30.07,7,2,7,0.00
2013-1-22,37.0,32.2,26.6,34.1,29.9,25.4,97,92,79,30.07,29.84,7,1,7,0.01
2013-1-23,40.9,38.2,36.5,38.8,34.3,29.1,95,86,72,30.08,29.79,16,4,18,0.18
2013-1-24,44.1,39.0,34.4,42.7,37.3,33.1,97,94,83,30.14,29.97,10,2,12,0.20
2013-1-25,50.1,44.2,37.5,44.8,41.7,36.0,96,91,80,29.98,29.86,13,2,14,0.01
2013-1-26,45.7,41.3,36.5,40.7,38.2,35.3,96,89,76,29.97,29.80,16,4,18,0.10
2013-1-27,41.8,39.9,38.2,39.2,37.3,36.1,93,90,85,30.00,29.92,16,3,17,0.03
2013-1-28,45.7,43.3,39.6,40.1,37.4,34.6,92,79,74,30.02,29.93,19,6,21,0.02
2013-1-29,49.9,47.4,44.8,43.6,41.6,38.9,91,80,74,30.31,30.02,21,6,21,0.01
2013-1-30,49.9,47.4,44.9,48.2,45.5,42.4,96,93,90,30.32,30.26,15,2,15,0.20
2013-1-31,48.8,46.6,44.6,45.8,44.2,42.1,96,92,84,30.33,30.24,13,2,15,0.03
2013-2-1,48.9,45.1,40.5,45.0,42.7,38.9,97,92,76,30.33,30.26,10,2,10,0.01
2013-2-2,46.0,41.8,35.8,41.6,39.3,35.0,97,91,80,30.30,30.18,9,2,10,0.00
2013-2-3,46.1,42.1,35.3,42.9,39.9,34.5,98,92,84,30.23,30.14,11,2,11,0.00
2013-2-4,51.1,45.9,41.8,42.9,41.4,39.7,94,85,69,30.15,29.84,7,2,8,0.00
2013-2-5,49.2,44.9,42.6,44.0,41.7,40.2,93,88,79,29.90,29.78,28,4,28,0.43
2013-2-6,48.5,45.0,42.6,42.5,40.8,38.1,93,85,69,29.98,29.71,25,4,25,0.18
2013-2-7,48.0,41.8,34.6,39.5,36.4,31.9,94,81,54,30.12,29.75,15,2,25,0.01
2013-2-8,44.6,37.5,31.2,37.5,33.8,29.9,97,87,68,30.25,30.12,7,1,8,0.01
2013-2-9,48.6,40.7,33.1,39.6,35.4,31.4,94,82,60,30.27,30.18,6,1,6,0.00
2013-2-10,44.6,43.1,41.9,40.1,38.4,35.7,92,84,71,30.30,30.25,9,2,9,0.00
2013-2-11,46.0,43.6,40.3,44.0,40.6,37.8,96,89,76,30.29,30.25,13,2,13,0.03
2013-2-12,50.7,47.1,44.6,46.4,44.2,42.4,94,90,77,30.35,30.28,19,4,19,0.02
2013-2-13,48.6,45.1,38.9,45.3,40.6,37.3,95,85,72,30.44,30.28,15,3,15,0.02
2013-2-14,47.3,43.8,38.3,45.9,41.8,37.0,96,93,88,30.48,30.44,11,2,12,0.01
2013-2-15,53.9,46.3,39.2,44.9,42.6,37.6,97,87,68,30.47,30.11,12,2,12,0.00
2013-2-16,50.7,44.8,38.5,43.3,39.2,33.8,96,81,66,30.14,30.10,22,5,22,0.02
2013-2-17,46.4,41.9,37.2,37.8,35.6,33.2,92,79,63,30.18,30.03,14,3,14,0.00
2013-2-18,45.8,40.3,35.3,37.3,35.0,32.8,96,82,61,30.03,29.67,13,2,14,0.02
2013-2-19,49.1,42.2,37.6,39.1,37.7,35.5,92,85,62,29.93,29.66,15,3,15,0.02
2013-2-20,45.4,39.6,35.2,39.3,36.5,33.5,95,89,71,29.98,29.92,12,2,13,0.10
2013-2-21,43.5,41.5,39.5,41.0,38.9,36.7,96,91,83,30.03,29.95,20,4,20,0.18
2013-2-22,47.3,41.7,38.3,44.4,38.2,32.3,95,87,69,30.02,29.68,31,6,31,1.60
2013-2-23,48.3,42.9,37.9,37.2,34.4,31.9,92,73,56,30.32,29.89,23,6,29,0.03
2013-2-24,48.2,43.8,39.3,36.3,35.1,32.2,86,72,58,30.33,29.88,21,6,22,0.02
2013-2-25,48.9,43.0,38.9,39.7,36.0,29.8,92,77,50,30.24,29.85,23,6,26,0.43
2013-2-26,47.4,42.1,36.9,37.6,34.7,32.3,89,76,57,30.29,30.13,13,4,16,0.02
2013-2-27,47.6,43.5,39.3,44.1,41.0,36.6,96,91,80,30.23,30.13,17,2,17,0.13
2013-2-28,52.5,47.9,43.6,51.7,46.8,42.5,98,96,90,30.26,30.12,17,3,18,0.68
2013-3-1,55.9,53.0,51.1,51.2,49.5,46.6,95,88,79,30.32,30.21,17,4,19,0.04
2013-3-2,55.7,49.1,41.9,49.5,43.3,33.4,88,81,71,30.21,30.03,20,5,21,0.04
2013-3-3,52.6,43.6,38.5,36.6,33.9,29.5,88,70,42,30.23,30.15,17,3,19,0.00
2013-3-4,51.9,41.1,31.5,37.0,31.6,23.1,94,72,36,30.23,29.84,16,2,22,0.00
2013-3-5,45.8,41.8,37.3,40.8,37.4,31.3,94,84,68,29.84,29.64,9,2,9,0.16
2013-3-6,44.5,42.0,40.5,41.7,40.0,37.9,96,92,87,29.83,29.51,13,2,16,0.31
2013-3-7,52.2,44.5,38.9,43.0,40.2,37.3,96,86,60,30.01,29.83,15,2,16,0.27
2013-3-8,51.4,43.5,37.2,40.8,39.0,35.1,97,85,61,30.17,30.01,11,3,11,0.00
2013-3-9,55.3,41.8,31.2,41.3,35.4,30.2,98,80,46,30.44,30.17,12,2,12,0.00
2013-3-10,46.5,41.9,37.0,43.0,38.6,34.0,94,88,79,30.44,30.36,5,1,6,0.04
2013-3-11,49.4,45.7,43.3,48.3,44.0,42.0,97,94,88,30.38,30.10,14,1,14,0.15
2013-3-12,54.2,51.2,49.2,50.3,48.6,47.3,95,91,82,30.10,30.03,19,4,20,0.20
2013-3-13,53.2,50.3,48.8,50.9,48.5,47.3,97,94,90,30.14,30.02,12,2,14,0.21
2013-3-14,51.3,49.1,47.7,49.1,47.9,46.1,98,96,85,30.03,29.97,9,1,9,0.00
2013-3-15,56.5,52.3,48.6,51.2,47.9,43.7,94,85,75,30.15,30.09,10,2,12,0.04
2013-3-16,49.5,45.8,39.1,45.2,40.9,33.9,92,83,64,30.09,29.89,24,5,25,0.18
2013-3-17,47.7,41.7,38.9,37.1,33.4,28.1,86,73,51,30.17,29.94,23,6,28,0.02
2013-3-18,52.5,43.8,36.9,40.0,33.7,27.6,93,70,41,30.16,30.10,19,5,22,0.06
2013-3-19,45.4,40.4,34.9,43.0,37.1,31.8,96,88,73,30.15,29.52,10,1,10,0.43
2013-3-20,51.7,45.5,37.8,49.5,41.2,31.3,98,85,67,30.00,29.32,26,7,26,0.79
2013-3-21,45.8,39.6,35.5,36.8,33.8,29.0,94,80,64,30.15,30.00,21,5,21,0.15
2013-3-22,44.1,38.6,31.3,35.5,31.6,28.8,94,77,57,30.31,30.15,15,2,17,0.00
2013-3-23,49.4,40.0,34.1,34.2,31.5,24.1,92,74,38,30.33,30.23,7,2,7,0.00
2013-3-24,51.7,40.8,33.1,41.6,33.1,29.9,91,75,43,30.23,30.04,9,2,10,0.00
2013-3-25,57.0,44.9,32.9,43.2,34.9,29.5,93,71,36,30.05,29.86,12,2,12,0.00
2013-3-26,58.4,51.3,46.0,47.0,41.9,38.7,85,71,51,29.95,29.89,6,2,7,0.01
2013-3-27,57.6,51.2,46.8,47.9,43.3,39.3,95,76,52,29.92,29.87,12,2,13,0.01
2013-3-28,58.0,51.0,47.7,49.7,47.2,44.8,96,87,66,30.08,29.92,12,2,15,0.22
2013-3-29,63.1,53.1,47.6,48.8,45.7,40.5,93,78,45,30.19,30.07,10,2,11,0.00
2013-3-30,66.0,52.8,40.9,44.9,42.3,39.0,96,71,40,30.18,30.00,16,2,17,0.00
2013-3-31,68.8,54.1,40.6,50.2,43.8,38.5,95,71,40,30.00,29.83,11,2,11,0.00
2013-4-1,63.9,52.8,46.5,48.3,46.1,44.3,94,79,54,30.10,29.92,15,3,17,0.00
2013-4-2,55.1,51.3,47.6,48.5,46.2,44.8,91,83,72,30.14,30.09,11,3,11,0.00
2013-4-3,59.3,52.5,47.1,47.1,44.4,42.2,84,75,54,30.13,29.88,10,3,11,0.00
2013-4-4,56.3,51.8,48.6,54.6,48.9,45.8,96,90,81,29.88,29.58,12,1,13,0.39
2013-4-5,55.7,51.9,48.8,50.3,48.6,46.4,95,89,74,29.82,29.66,19,4,19,0.85
2013-4-6,52.5,48.6,44.2,48.8,44.0,36.4,93,84,69,29.87,29.65,27,4,27,0.45
2013-4-7,49.6,44.6,39.8,42.8,39.9,37.2,95,84,68,29.83,29.44,17,5,18,0.67
2013-4-8,54.4,46.9,40.1,43.2,40.4,36.8,92,78,61,30.21,29.83,12,2,12,0.00
2013-4-9,55.3,47.3,38.9,42.7,39.8,37.3,95,77,54,30.28,30.13,12,2,12,0.00
2013-4-10,53.5,51.6,50.4,50.2,45.5,42.6,94,80,68,30.13,29.90,28,5,29,0.36
2013-4-11,56.6,49.9,42.8,41.6,35.7,28.1,88,60,36,30.23,30.13,21,5,21,0.00
2013-4-12,46.4,42.6,38.2,43.3,37.3,33.6,92,82,65,30.13,29.66,31,4,31,0.18
2013-4-13,47.7,43.0,39.1,41.4,36.9,31.0,90,79,69,29.94,29.75,24,6,24,0.23
2013-4-14,49.1,42.7,38.6,40.6,38.2,36.8,94,85,65,29.95,29.87,17,2,17,0.24
2013-4-15,54.7,43.3,35.6,41.6,37.7,34.3,100,83,48,30.12,29.88,20,2,20,0.03
2013-4-16,56.5,44.7,34.9,43.2,37.4,29.8,98,78,40,30.34,30.12,17,2,18,0.01
2013-4-17,58.4,47.1,38.3,41.0,37.1,32.3,91,70,41,30.41,30.34,17,4,17,0.00
2013-4-18,53.9,48.1,44.1,47.9,42.5,37.3,93,81,67,30.40,30.17,15,4,16,0.02
2013-4-19,55.3,51.1,48.6,51.2,47.3,43.7,96,87,72,30.17,30.00,23,5,23,0.24
2013-4-20,57.3,50.9,47.3,45.2,42.7,40.2,89,74,55,30.23,30.17,21,5,21,0.00
2013-4-21,56.6,48.2,43.1,45.8,41.6,36.2,94,79,50,30.30,30.16,15,4,16,0.08
2013-4-22,59.8,47.9,38.0,46.0,34.2,16.1,99,68,20,30.45,30.30,17,3,17,0.01
2013-4-23,61.6,49.1,34.7,38.9,31.4,21.7,90,57,22,30.36,30.16,15,2,15,0.00
2013-4-24,67.8,53.4,38.6,43.8,37.5,28.5,91,60,25,30.25,29.99,13,2,13,0.00
2013-4-25,71.8,56.0,42.6,49.6,42.0,35.1,88,63,30,30.10,29.97,11,3,12,0.00
2013-4-26,71.1,55.0,46.1,51.1,42.2,26.1,89,67,21,30.19,30.10,13,3,14,0.00
2013-4-27,57.8,53.6,50.8,49.2,43.4,35.7,92,69,48,30.18,30.12,18,4,18,0.00
2013-4-28,58.6,52.3,48.2,48.6,44.1,36.1,93,76,46,30.17,29.89,20,4,20,0.17
2013-4-29,54.4,48.9,43.9,48.0,35.1,25.9,93,60,35,30.10,29.89,26,8,32,0.02
2013-4-30,55.9,47.5,38.0,35.8,31.4,25.4,81,55,34,30.39,30.10,13,3,16,0.00
2013-5-1,62.3,49.2,35.6,39.3,32.2,20.6,90,58,22,30.50,30.39,15,3,15,0.00
2013-5-2,67.8,54.5,41.2,43.7,38.1,29.6,87,57,27,30.47,30.28,16,3,17,0.00
2013-5-3,69.1,56.9,43.3,47.1,42.8,38.5,89,62,37,30.32,30.14,18,3,18,0.00
2013-5-4,77.9,63.3,47.3,48.2,41.6,33.2,90,52,20,30.14,29.91,21,3,22,0.00
2013-5-5,82.8,66.6,49.1,49.5,41.5,31.4,84,46,17,29.91,29.67,18,3,18,0.00
2013-5-6,83.8,65.5,51.0,54.4,48.4,43.0,84,57,27,29.78,29.69,16,3,17,0.00
2013-5-7,64.8,56.9,52.0,52.4,49.0,47.3,86,75,60,29.95,29.77,15,4,15,0.00
2013-5-8,67.6,57.0,51.7,54.4,49.0,46.5,88,75,56,30.08,29.96,12,3,12,0.00
2013-5-9,72.5,57.6,49.1,55.8,49.8,46.5,92,77,43,30.16,30.04,11,3,11,0.00
2013-5-10,79.0,62.9,49.4,58.9,50.9,36.2,92,67,37,30.14,30.03,13,3,13,0.00
2013-5-11,79.0,64.0,52.9,58.1,50.5,39.6,80,63,39,30.12,29.93,14,3,15,0.00
2013-5-12,66.9,62.1,57.5,57.8,55.6,53.3,91,79,67,30.03,29.96,12,3,12,0.08
2013-5-13,64.2,56.5,48.9,55.0,50.1,40.8,94,80,62,30.15,29.89,30,5,30,0.08
2013-5-14,65.0,54.9,46.2,43.9,41.1,33.2,85,62,31,30.16,30.04,11,3,12,0.00
2013-5-15,59.9,52.9,45.8,51.5,46.3,41.2,89,79,53,30.06,29.95,10,2,11,0.02
2013-5-16,68.8,57.6,50.2,55.6,49.7,42.0,94,77,38,29.95,29.80,16,3,16,0.03
2013-5-17,63.7,56.3,52.3,52.5,48.3,42.2,91,76,48,30.02,29.90,16,3,17,0.06
2013-5-18,60.4,54.6,50.8,51.0,47.6,44.3,87,77,64,30.21,30.01,10,3,11,0.02
2013-5-19,63.7,56.3,51.6,49.9,47.6,45.3,86,73,53,30.33,30.21,13,2,13,0.00
2013-5-20,66.1,55.1,47.3,48.8,45.8,40.3,88,72,48,30.30,29.86,15,3,16,0.04
2013-5-21,56.6,50.0,46.2,47.1,43.0,37.8,92,77,56,29.87,29.74,17,4,19,0.50
2013-5-22,49.8,47.2,45.2,47.3,42.5,39.9,92,84,78,29.87,29.80,16,4,17,0.21
2013-5-23,50.1,47.1,43.3,47.3,43.5,39.9,92,87,79,29.93,29.87,15,2,15,0.35
2013-5-24,56.9,51.2,46.7,50.5,47.0,44.5,96,86,67,30.00,29.90,14,1,14,0.15
2013-5-25,59.2,53.0,48.6,50.7,47.5,42.9,92,82,57,29.98,29.90,11,3,11,0.02
2013-5-26,60.1,54.4,50.7,54.5,51.0,48.8,96,88,75,29.92,29.88,10,2,11,0.08
2013-5-27,62.3,55.3,51.6,56.0,50.9,48.5,94,86,66,29.90,29.63,19,3,19,0.26
2013-5-28,62.0,55.4,51.3,51.9,48.3,44.3,92,78,57,29.82,29.69,27,4,27,0.08
2013-5-29,58.4,53.1,48.9,50.5,47.3,44.3,94,81,61,29.94,29.62,19,4,19,0.37
2013-5-30,59.2,53.1,49.1,50.2,46.6,43.8,87,79,63,30.19,29.94,18,4,18,0.11
2013-5-31,65.8,55.8,48.0,48.6,45.6,38.4,94,71,38,30.28,30.18,9,2,10,0.00
2013-6-1,70.9,61.1,51.7,51.4,48.6,44.0,86,65,45,30.18,29.98,14,3,14,0.00
2013-6-2,67.1,59.8,53.9,51.8,49.1,43.8,84,69,53,30.04,29.98,12,2,12,0.00
2013-6-3,71.6,58.2,47.9,52.5,48.4,45.7,92,72,45,30.07,29.98,14,3,15,0.00
2013-6-4,79.0,63.7,48.5,57.6,49.9,45.4,93,65,31,30.07,29.93,11,3,11,0.00
2013-6-5,77.0,64.5,55.0,59.0,53.2,49.1,85,68,43,30.03,29.95,13,3,13,0.00
2013-6-6,77.4,64.0,53.2,55.9,50.4,38.3,92,65,28,30.00,29.94,16,3,16,0.00
2013-6-7,68.1,60.5,53.8,53.5,48.2,39.7,81,65,42,30.09,29.97,17,4,18,0.00
2013-6-8,69.1,58.6,50.5,53.0,48.7,45.8,87,71,50,30.12,30.02,11,3,12,0.00
2013-6-9,67.8,57.5,51.1,49.9,46.9,42.5,88,70,42,30.06,29.95,17,3,17,0.00
2013-6-10,66.8,56.3,45.7,46.5,44.6,40.7,90,67,39,29.97,29.83,16,2,20,0.00
2013-6-11,63.2,55.7,48.5,49.1,44.9,39.2,87,68,45,30.06,29.90,19,4,19,0.04
2013-6-12,61.0,55.0,50.1,52.2,48.0,43.5,88,78,55,30.09,30.05,16,3,21,0.11
2013-6-13,66.6,57.8,51.7,51.0,48.4,45.5,92,73,48,30.18,30.08,18,3,20,0.03
2013-6-14,63.1,57.0,53.2,52.0,48.5,45.3,88,73,58,30.18,29.98,12,3,14,0.00
2013-6-15,75.6,61.7,48.0,55.5,49.7,46.3,95,68,39,29.98,29.84,11,2,11,0.00
2013-6-16,72.3,62.2,52.6,55.6,51.3,46.8,91,69,44,30.03,29.93,14,3,14,0.00
2013-6-17,72.0,61.7,55.9,55.7,51.7,47.9,92,71,46,30.03,29.86,17,3,18,0.09
2013-6-18,70.1,59.8,53.8,54.2,50.1,42.6,96,73,39,29.92,29.85,21,3,21,0.01
2013-6-19,68.1,59.5,51.4,50.3,48.0,43.2,90,68,43,29.97,29.86,16,3,17,0.00
2013-6-20,62.9,57.8,53.6,50.5,48.4,45.5,86,72,54,30.05,29.92,19,5,21,0.00
2013-6-21,68.1,59.9,54.4,53.7,50.4,47.3,86,71,55,30.09,30.03,15,3,15,0.00
2013-6-22,75.8,63.2,50.4,56.6,51.7,47.3,95,69,37,30.06,29.77,11,2,11,0.00
2013-6-23,65.5,62.2,59.8,61.1,57.9,54.6,95,86,70,29.77,29.55,9,2,9,0.52
2013-6-24,66.9,60.5,57.0,59.1,55.4,51.1,96,84,62,29.63,29.51,15,3,16,0.12
2013-6-25,72.0,61.5,57.3,60.4,55.5,50.5,96,82,51,29.78,29.60,20,2,21,0.49
2013-6-26,69.3,61.8,57.0,60.1,57.0,55.2,97,85,62,30.00,29.77,19,3,19,0.38
2013-6-27,65.8,61.6,58.1,62.9,59.5,56.9,97,93,85,30.13,29.97,8,2,9,0.19
2013-6-28,83.6,69.1,60.2,65.6,61.2,57.7,100,78,51,30.11,29.97,17,3,19,0.00
2013-6-29,83.8,72.5,62.1,62.3,59.5,56.5,92,66,42,30.04,29.91,12,3,14,0.01
2013-6-30,88.8,74.9,62.0,66.1,61.3,56.8,92,65,35,29.94,29.76,11,3,11,0.00
2013-7-1,84.5,72.8,63.4,66.6,61.1,55.2,88,68,50,29.97,29.84,13,4,13,0.00
2013-7-2,79.4,67.4,59.5,64.0,58.1,55.3,88,73,47,30.04,29.96,11,3,14,0.00
2013-7-3,77.9,66.0,57.0,57.5,52.5,45.1,84,64,36,30.09,29.97,15,3,16,0.00
2013-7-4,71.8,62.0,55.4,53.9,51.8,50.1,86,70,48,30.06,29.97,11,2,12,0.00
2013-7-5,71.5,62.3,53.2,54.8,52.4,50.3,91,71,50,29.97,29.89,12,3,12,0.00
2013-7-6,77.2,63.4,52.0,59.7,53.9,49.7,92,73,48,29.92,29.79,12,3,13,0.00
2013-7-7,72.3,62.2,56.2,59.2,54.8,51.6,90,77,57,29.90,29.82,14,3,14,0.00
2013-7-8,73.0,62.8,55.0,60.9,54.9,50.7,87,76,62,30.03,29.90,10,3,11,0.00
2013-7-9,84.1,69.1,56.6,61.4,57.2,52.9,93,68,35,30.04,29.92,14,4,14,0.00
2013-7-10,73.7,62.1,55.7,54.9,50.7,45.8,86,68,41,30.01,29.90,17,4,17,0.00
2013-7-11,69.4,59.6,51.0,51.8,48.1,46.3,86,67,46,30.01,29.92,14,4,14,0.00
2013-7-12,68.3,59.3,52.0,52.0,48.8,44.2,87,69,51,30.04,29.95,11,2,14,0.00
2013-7-13,76.0,62.0,48.9,53.2,47.6,40.8,90,63,31,30.14,30.02,12,3,12,0.00
2013-7-14,80.5,65.8,51.6,54.7,48.1,40.3,90,57,25,30.07,29.91,16,3,16,0.00
2013-7-15,78.8,66.1,52.3,53.7,49.5,42.0,90,59,27,29.98,29.81,16,3,18,0.00
2013-7-16,81.6,70.1,55.6,59.3,52.9,47.0,89,57,32,29.83,29.72,20,2,20,0.00
2013-7-17,69.3,64.3,56.7,55.8,53.6,51.7,84,69,57,30.13,29.83,14,3,16,0.00
2013-7-18,75.1,63.3,53.6,59.6,54.2,50.6,90,73,55,30.17,30.04,13,3,13,0.00
2013-7-19,75.3,63.2,54.1,61.6,55.1,50.7,90,76,57,30.11,29.97,13,4,13,0.00
2013-7-20,73.3,61.5,54.8,58.5,54.4,51.9,91,78,56,30.03,29.89,12,3,12,0.00
2013-7-21,69.3,60.6,55.1,58.4,54.4,51.6,90,81,66,29.92,29.84,13,4,13,0.00
2013-7-22,71.1,61.9,55.6,61.0,55.8,53.1,93,81,63,30.00,29.89,10,3,10,0.00
2013-7-23,84.9,66.9,54.4,61.7,56.2,53.0,97,72,38,30.01,29.88,12,4,14,0.00
2013-7-24,82.6,66.9,54.8,62.0,55.3,51.6,90,69,43,30.01,29.91,11,4,12,0.00
2013-7-25,82.2,66.2,52.9,59.9,53.8,50.3,93,68,34,30.05,29.97,11,4,11,0.00
2013-7-26,81.6,67.5,55.7,58.4,52.2,42.9,87,61,28,30.09,30.00,17,4,17,0.00
2013-7-27,74.4,62.0,52.8,54.3,51.4,48.3,88,69,47,30.10,29.94,14,3,14,0.00
2013-7-28,66.8,59.1,53.1,53.0,51.1,48.5,88,76,59,29.96,29.91,14,3,14,0.00
2013-7-29,74.2,62.1,53.2,57.2,52.4,49.5,89,72,51,29.95,29.87,13,3,13,0.00
2013-7-30,69.6,61.0,54.4,58.5,54.1,50.9,89,78,65,30.08,29.94,13,3,13,0.00
2013-7-31,71.1,61.0,56.0,60.4,55.3,52.8,92,82,67,30.06,29.92,11,3,12,0.00
2013-8-1,66.4,60.7,55.7,55.5,53.2,51.8,89,77,63,30.01,29.98,16,3,18,0.00
2013-8-2,65.3,60.9,56.9,57.9,55.1,52.2,90,82,72,30.06,30.00,14,3,14,0.01
2013-8-3,72.5,63.9,59.0,58.9,56.4,53.7,86,77,57,30.06,29.97,11,3,11,0.00
2013-8-4,80.3,68.2,57.3,62.6,57.9,55.0,92,72,47,29.99,29.86,11,3,14,0.01
2013-8-5,80.7,67.4,56.7,62.0,56.6,51.7,91,70,43,29.96,29.85,13,4,13,0.00
2013-8-6,84.0,72.4,54.5,62.0,54.7,43.2,88,56,24,29.95,29.84,12,4,12,0.00
2013-8-7,81.6,65.9,53.9,60.3,55.3,51.6,93,71,41,29.96,29.87,12,4,12,0.00
2013-8-8,77.2,65.4,58.0,62.3,56.9,54.5,89,75,51,29.97,29.87,14,3,14,0.00
2013-8-9,79.8,66.6,56.0,63.1,57.1,51.5,93,73,45,29.89,29.77,11,3,11,0.00
2013-8-10,76.0,63.9,57.6,60.5,56.3,46.1,93,78,37,29.95,29.83,14,4,15,0.07
2013-8-11,73.5,64.4,56.9,57.7,53.9,50.6,85,70,53,30.00,29.92,11,3,12,0.00
2013-8-12,74.7,64.7,59.6,56.9,53.6,51.1,79,68,48,30.01,29.94,16,3,16,0.00
2013-8-13,79.0,66.5,55.3,58.8,53.5,51.2,87,65,39,30.04,29.84,11,3,11,0.00
2013-8-14,80.3,65.0,58.4,59.8,56.6,50.6,92,76,39,29.89,29.83,18,2,18,0.07
2013-8-15,68.3,63.8,61.5,64.4,61.9,59.2,97,93,85,29.92,29.85,4,0,4,0.08
2013-8-16,81.8,68.0,60.5,63.3,59.4,52.5,99,77,43,29.95,29.87,14,2,16,0.00
2013-8-17,75.1,66.8,60.2,60.6,57.1,54.8,84,72,53,30.01,29.95,14,3,14,0.00
2013-8-18,73.5,65.8,56.0,59.4,56.2,53.7,92,72,53,30.06,29.99,17,3,17,0.00
2013-8-19,76.8,66.2,56.5,59.8,55.4,51.4,90,70,43,30.04,29.98,16,3,16,0.00
2013-8-20,76.0,64.9,55.1,55.1,51.6,45.7,91,65,38,30.09,29.98,12,3,12,0.00
2013-8-21,78.8,65.8,51.4,54.0,50.5,47.4,92,61,35,30.01,29.85,15,2,15,0.00
2013-8-22,81.4,68.4,55.1,57.8,53.5,50.2,92,62,35,29.87,29.73,9,2,9,0.00
2013-8-23,73.3,66.0,61.5,57.5,55.7,52.5,84,70,49,29.83,29.78,16,3,17,0.00
2013-8-24,72.7,64.9,59.6,57.9,55.3,50.4,93,73,47,29.85,29.78,12,2,13,0.02
2013-8-25,69.8,61.2,52.5,57.0,53.7,50.3,97,78,55,29.88,29.80,10,1,10,0.00
2013-8-26,74.4,63.7,59.6,60.2,55.5,46.3,93,77,39,29.88,29.79,18,2,20,0.05
2013-8-27,75.8,66.5,60.9,63.5,59.2,57.3,91,78,55,29.88,29.72,11,2,13,0.03
2013-8-28,75.3,67.8,61.8,63.3,61.5,59.8,97,81,61,29.83,29.76,12,2,12,0.11
2013-8-29,73.0,66.5,63.2,66.8,62.9,60.7,96,88,75,29.96,29.76,15,2,21,0.66
2013-8-30,73.9,67.3,59.2,61.0,57.4,53.9,96,72,51,30.07,29.96,11,2,12,0.00
2013-8-31,80.1,66.1,53.9,62.9,56.6,52.5,96,74,44,30.01,29.75,10,2,11,0.00
2013-9-1,78.6,67.4,58.1,60.2,56.9,52.2,92,71,45,29.82,29.72,15,3,15,0.00
2013-9-2,78.6,68.0,60.9,61.7,57.2,53.6,87,70,46,29.86,29.79,16,2,17,0.01
2013-9-3,72.8,64.7,59.0,62.3,58.7,53.6,95,82,61,29.95,29.86,9,2,9,0.42
2013-9-4,71.1,64.5,59.9,61.2,59.2,57.5,93,83,65,29.99,29.92,10,2,10,0.00
2013-9-5,67.4,63.4,61.2,61.8,59.8,58.2,95,88,75,29.96,29.86,12,3,13,0.00
2013-9-6,68.3,65.2,61.3,62.1,60.0,57.5,98,84,69,30.04,29.92,11,2,13,0.38
2013-9-7,71.6,63.5,57.8,60.6,58.8,55.6,98,86,59,30.04,29.93,11,2,12,0.00
2013-9-8,77.4,65.3,57.3,63.0,59.1,56.2,98,82,50,30.04,29.94,11,2,11,0.01
2013-9-9,76.5,64.1,58.6,64.3,59.7,57.3,97,86,59,30.00,29.89,9,2,9,0.00
2013-9-10,76.3,66.1,57.3,61.1,58.4,55.6,96,78,55,29.92,29.80,14,3,16,0.00
2013-9-11,86.5,69.0,57.2,67.0,59.6,56.1,96,75,39,29.87,29.78,14,2,15,0.00
2013-9-12,76.7,64.6,59.2,64.9,59.2,57.1,94,83,62,29.94,29.83,10,2,10,0.00
2013-9-13,66.3,62.6,59.8,60.6,58.6,56.8,95,87,79,29.90,29.80,6,2,6,0.00
2013-9-14,68.4,63.2,59.6,60.7,59.2,57.3,94,87,74,29.81,29.67,9,2,9,0.00
2013-9-15,65.8,61.0,57.5,61.0,58.5,56.4,98,92,79,29.75,29.65,13,1,14,0.09
2013-9-16,69.1,62.7,59.3,59.4,56.5,52.4,94,81,62,29.86,29.75,12,2,13,0.02
2013-9-17,65.8,59.0,53.3,56.0,53.2,48.5,94,82,54,29.87,29.78,12,2,13,0.46
2013-9-18,67.6,56.7,48.9,55.5,51.8,48.0,98,85,55,30.00,29.87,9,2,10,0.01
2013-9-19,73.7,59.2,49.6,56.0,51.7,45.0,98,79,39,29.97,29.70,9,2,9,0.00
2013-9-20,70.6,58.9,51.6,57.5,53.2,49.4,95,83,52,29.70,29.53,17,2,18,0.14
2013-9-21,66.9,59.7,53.8,56.9,53.9,49.4,98,82,58,29.65,29.58,13,2,14,0.00
2013-9-22,60.9,56.9,55.3,55.5,53.4,50.9,94,88,79,29.70,29.49,21,5,23,1.13
2013-9-23,59.3,55.8,52.0,55.5,52.8,50.6,95,90,81,29.90,29.70,13,2,14,0.50
2013-9-24,61.5,52.8,49.8,51.8,49.8,45.4,96,90,57,29.90,29.78,12,2,12,0.57
2013-9-25,58.9,53.2,49.9,50.0,48.5,46.2,95,85,64,29.95,29.78,9,2,10,0.04
2013-9-26,60.4,51.6,46.4,51.9,48.0,45.6,98,88,64,30.07,29.95,7,1,8,0.00
2013-9-27,56.0,52.8,49.2,53.1,50.5,47.3,94,92,90,30.07,29.79,20,4,21,0.17
2013-9-28,60.9,55.8,52.2,58.2,53.7,49.2,97,93,78,29.79,29.29,26,5,26,2.37
2013-9-29,55.6,53.4,51.3,52.5,49.9,44.7,92,88,72,29.50,29.11,29,6,29,0.87
2013-9-30,58.6,52.3,48.3,51.8,47.9,45.4,93,85,71,29.87,29.37,20,5,24,1.13
2013-10-1,57.5,51.3,47.1,48.5,46.6,43.2,95,84,60,30.07,29.84,17,4,19,0.49
2013-10-2,53.9,49.6,47.3,48.5,47.0,44.9,95,91,74,30.12,29.97,11,2,13,0.41
2013-10-3,57.0,49.9,44.8,48.9,45.8,43.6,98,87,64,30.38,30.11,7,1,7,0.00
2013-10-4,58.9,49.3,44.1,50.1,46.2,43.0,99,90,61,30.41,30.28,7,1,7,0.01
2013-10-5,62.6,50.0,43.2,53.1,47.2,42.2,99,91,62,30.29,30.06,7,1,7,0.01
2013-10-6,74.4,55.5,41.9,50.3,45.4,37.8,98,74,28,30.07,29.83,16,2,19,0.02
2013-10-7,58.4,54.3,52.2,52.2,48.9,44.2,94,83,63,29.98,29.84,18,4,19,0.24
2013-10-8,58.7,51.8,44.3,46.4,44.7,41.5,96,77,55,30.01,29.88,24,4,26,0.08
2013-10-9,58.3,47.9,42.5,47.4,44.0,40.9,100,87,56,30.07,29.89,7,1,7,0.01
2013-10-10,55.1,50.9,47.1,52.4,48.2,44.8,96,91,82,30.00,29.87,10,2,11,0.05
2013-10-11,56.2,50.2,43.6,49.1,46.9,43.1,98,89,71,30.07,30.00,6,1,6,0.00
2013-10-12,56.3,49.9,45.2,47.5,46.2,43.9,96,88,68,30.15,30.00,7,1,7,0.11
2013-10-13,57.2,47.8,43.5,48.3,44.6,41.9,99,90,65,30.29,30.15,10,1,10,0.00
2013-10-14,57.3,48.4,43.2,47.2,45.0,41.9,99,89,63,30.36,30.29,10,2,10,0.01
2013-10-15,56.9,46.0,41.2,50.0,44.4,40.0,99,94,75,30.32,30.11,6,1,7,0.01
2013-10-16,50.4,45.5,42.6,49.8,45.0,42.1,100,98,96,30.12,30.08,6,0,6,0.00
2013-10-17,57.6,52.4,44.5,48.5,46.5,42.9,94,81,67,30.20,30.14,10,2,11,0.00
2013-10-18,52.3,47.3,43.6,48.6,46.0,42.5,99,95,84,30.17,30.08,10,1,10,0.01
2013-10-19,48.8,46.0,42.8,48.6,45.4,42.1,100,98,93,30.12,30.07,7,2,7,0.01
2013-10-20,49.5,48.0,46.5,47.7,46.1,45.4,97,93,89,30.13,30.07,10,3,11,0.00
2013-10-21,50.4,48.5,47.0,47.4,46.6,44.9,96,93,89,30.09,30.02,10,3,11,0.00
2013-10-22,57.2,50.4,45.2,49.8,47.5,43.9,96,90,76,30.04,29.95,9,2,10,0.00
2013-10-23,52.3,47.6,44.8,50.6,47.1,44.0,100,98,92,29.98,29.91,7,1,7,0.01
2013-10-24,49.2,46.3,43.1,49.2,46.2,43.1,100,100,99,30.06,29.95,6,1,6,0.01
2013-10-25,53.6,50.6,46.5,50.2,47.7,44.8,100,90,79,30.24,30.06,9,2,9,0.00
2013-10-26,52.6,49.7,44.5,46.9,45.3,43.3,98,85,77,30.26,30.12,10,2,10,0.00
2013-10-27,56.5,50.3,43.6,46.9,45.1,41.7,93,83,64,30.13,29.83,17,3,17,0.00
2013-10-28,58.1,51.7,40.2,44.1,33.9,26.4,96,53,31,29.88,29.80,24,6,24,0.00
2013-10-29,58.4,44.4,34.9,43.9,36.0,32.1,90,74,40,29.96,29.87,7,2,9,0.00
2013-10-30,57.8,47.6,39.3,45.4,40.0,35.8,89,75,59,30.08,29.96,11,3,13,0.00
2013-10-31,55.4,51.1,47.4,52.1,48.8,44.5,96,92,86,30.19,30.04,14,2,15,0.08
2013-11-1,58.0,50.8,44.9,51.2,48.4,44.1,98,92,74,30.21,29.77,9,1,9,0.02
2013-11-2,53.9,51.3,48.9,50.9,47.7,41.8,96,87,72,29.77,29.45,35,7,39,0.44
2013-11-4,47.1,45.6,42.5,43.3,41.5,39.1,96,86,76,30.12,29.98,7,1,7,0.05
2013-11-5,55.4,49.5,43.8,50.2,45.4,39.6,97,87,57,30.18,29.94,16,3,19,0.17
2013-11-6,49.8,46.9,44.3,47.1,45.0,43.0,97,93,83,30.24,29.96,7,1,9,0.27
2013-11-7,53.8,50.1,47.7,52.7,46.7,42.3,99,88,76,29.98,29.67,28,6,29,1.04
2013-11-8,54.1,50.0,47.6,45.6,43.5,41.8,87,79,64,30.08,29.95,15,3,24,0.00
2013-11-12,59.5,53.6,48.0,51.9,49.5,45.2,95,86,73,30.31,30.02,21,3,21,0.14
2013-11-13,56.5,50.0,43.3,49.4,46.7,42.2,97,89,68,30.38,30.24,11,2,12,0.05
2013-11-14,50.2,46.0,41.8,44.9,43.3,41.0,97,90,78,30.24,30.00,6,1,7,0.00
2013-11-15,48.6,44.6,39.9,46.8,42.0,38.6,96,91,76,30.00,29.34,23,4,23,0.28
2013-11-16,48.5,45.8,42.2,39.1,36.7,33.8,87,71,59,29.73,29.41,27,5,27,0.00
2013-11-17,49.2,45.8,41.5,47.5,44.0,38.5,96,94,88,29.84,29.73,16,2,17,0.31
2013-11-18,51.9,49.8,47.4,50.2,48.0,46.3,100,93,88,29.84,29.49,26,5,26,0.99
2013-11-19,51.9,48.0,43.5,50.6,40.8,33.9,96,77,59,29.80,29.51,20,5,20,0.08
2013-11-20,43.8,38.0,31.6,30.7,28.4,23.4,88,69,45,30.43,30.09,13,3,15,0.01
2013-11-21,43.8,34.1,27.8,31.5,27.7,22.3,94,79,43,30.58,30.43,13,1,13,0.00
2013-11-22,46.4,35.0,27.3,33.1,28.7,25.0,91,79,47,30.57,30.38,11,1,11,0.01
2013-11-23,45.7,35.1,28.4,38.5,32.2,26.9,95,89,72,30.38,30.13,7,1,7,0.00
2013-11-24,41.9,36.0,30.6,39.5,34.6,29.3,99,95,85,30.18,30.09,4,0,5,0.01
2013-11-25,50.7,38.1,30.6,40.0,33.8,29.7,97,86,49,30.24,30.18,7,1,9,0.01
2013-11-26,49.9,40.4,30.3,42.3,34.9,29.3,96,82,49,30.19,30.00,10,1,11,0.01
2013-11-27,52.2,43.6,36.3,42.6,40.3,35.0,96,88,68,30.01,29.89,5,0,5,0.00
2013-11-28,46.5,38.0,32.2,41.3,36.2,31.5,98,93,80,30.10,29.95,11,1,11,0.00
2013-11-29,49.1,45.0,37.5,43.8,40.4,36.0,96,84,78,30.25,30.10,11,2,12,0.01
2013-11-30,49.5,46.9,44.2,45.7,43.6,41.7,94,89,81,30.26,30.03,12,3,15,0.10
2013-12-1,55.0,50.7,42.9,51.4,46.2,37.0,96,85,70,30.03,29.74,25,6,27,0.61
2013-12-2,42.8,38.5,33.5,36.5,32.9,30.3,95,81,67,29.99,29.80,21,4,21,0.02
2013-12-3,40.2,34.7,28.7,32.1,24.8,17.7,96,69,42,30.24,29.99,15,2,15,0.00
2013-12-4,38.2,29.6,24.8,27.5,24.4,22.3,91,81,58,30.28,30.23,7,1,7,0.00
2013-12-5,32.2,26.9,21.6,25.8,22.8,19.1,92,84,71,30.25,30.09,6,1,6,0.00
2013-12-6,32.5,29.4,27.3,24.6,11.8,1.5,84,50,32,30.12,30.01,22,5,25,0.00
2013-12-7,30.1,25.9,18.3,14.1,8.7,1.0,76,49,30,30.36,30.12,17,4,21,0.00
2013-12-8,31.6,23.7,17.5,16.2,13.1,9.4,77,65,39,30.51,30.36,9,2,9,0.00
2013-12-9,30.4,27.4,23.0,26.5,19.3,13.7,90,72,62,30.51,30.42,11,2,12,0.00
2013-12-10,36.3,33.1,29.1,35.0,30.9,26.2,95,92,88,30.43,30.34,7,1,8,0.01
2013-12-11,36.9,34.4,31.0,35.2,33.1,30.2,97,95,89,30.34,30.09,6,1,6,0.00
2013-12-12,40.8,36.8,31.3,39.3,33.9,29.5,97,89,77,30.09,29.97,19,4,19,0.23
2013-12-13,47.7,44.2,40.6,44.6,42.3,39.3,96,93,88,30.36,30.06,14,2,14,0.00
2013-12-14,47.0,44.0,39.6,42.8,41.1,38.6,96,90,85,30.36,30.25,11,2,13,0.00
2013-12-15,51.0,45.7,42.6,47.3,43.9,40.5,97,94,86,30.38,30.27,13,3,13,0.05
2013-12-16,44.3,42.6,41.1,43.4,40.8,38.9,100,93,87,30.42,30.19,6,1,7,0.01
2013-12-17,43.6,41.0,38.3,40.3,38.7,36.7,97,92,86,30.19,30.04,13,2,13,0.00
2013-12-18,48.0,42.2,35.0,40.9,36.3,29.9,94,81,56,30.08,29.94,21,2,22,0.01
2013-12-19,39.9,35.3,30.6,33.3,27.2,19.4,95,73,46,30.28,30.08,11,1,14,0.00
2013-12-20,48.2,37.6,32.4,45.7,35.0,27.6,96,90,79,30.14,29.65,21,5,22,0.17
2013-12-21,47.7,44.5,42.3,46.5,42.6,40.2,97,93,88,30.10,29.77,11,1,11,0.06
2013-12-22,50.4,47.9,45.1,48.2,46.4,43.8,100,94,91,30.24,30.08,13,3,15,0.02
2013-12-23,51.0,47.8,40.3,48.0,43.4,37.0,96,85,69,30.44,30.12,20,5,23,0.22
2013-12-24,42.2,38.8,34.6,38.4,36.0,32.6,96,90,78,30.55,30.44,7,1,7,0.00
2013-12-25,39.9,38.0,35.8,37.2,36.0,34.5,97,92,86,30.45,30.32,6,1,6,0.00
2013-12-26,42.6,36.6,31.9,38.1,34.8,31.4,98,93,82,30.33,30.13,6,2,6,0.00
2013-12-27,45.1,39.7,32.7,43.3,37.8,31.9,98,93,82,30.30,30.07,15,2,15,0.01
2013-12-28,44.2,41.0,38.0,42.9,39.9,37.0,98,96,94,30.45,30.29,6,1,6,0.00
2013-12-29,42.2,40.0,37.3,39.8,38.3,35.7,98,94,86,30.41,30.24,6,1,6,0.00
2013-12-30,44.9,41.6,38.9,39.6,38.6,37.8,98,89,77,30.24,30.06,16,2,16,0.00
2013-12-31,45.2,43.7,41.9,44.1,41.6,38.2,97,92,81,30.30,30.12,10,2,12,0.06
2014-1-1,44.1,42.8,42.2,43.0,41.7,40.6,98,96,94,30.32,30.17,8,1,8,0.01
2014-1-2,49.9,45.8,42.1,45.1,41.4,37.4,96,85,72,30.17,29.85,22,4,22,0.14